sensor_id;sensor_type;location;lat;lon;timestamp;P1;durP1;ratioP1;P2;durP2;ratioP2
45382;SDS011;42455;51.660;5.824;2023-04-08T00:00:22;39.0;;;25.0;;
45382;SDS011;42455;51.660;5.824;2023-04-08T00:05:28;37.0;;;27.0;;
45382;SDS011;42455;51.660;5.824;2023-04-08T00:10:34;35.0;;;25.0;;
45382;SDS011;42455;51.660;5.824;2023-04-08T00:15:39;39.0;;;27.0;;
45382;SDS011;42455;51.660;5.824;2023-04-08T00:20:46;35.0;;;27.0;;
45382;SDS011;42455;51.660;5.824;2023-04-08T00:25:52;39.0;;;28.0;;
45382;SDS011;42455;51.660;5.824;2023-04-08T00:30:58;39.0;;;27.0;;
45382;SDS011;42455;51.660;5.824;2023-04-08T00:36:04;39.0;;;29.0;;
45382;SDS011;42455;51.660;5.824;2023-04-08T00:41:11;39.0;;;28.0;;
45382;SDS011;42455;51.660;5.824;2023-04-08T00:46:17;38.5;;;28.0;;
45382;SDS011;42455;51.660;5.824;2023-04-08T00:51:23;42.0;;;29.0;;
45382;SDS011;42455;51.660;5.824;2023-04-08T00:56:29;38.0;;;29.0;;
45382;SDS011;42455;51.660;5.824;2023-04-08T01:01:46;39.0;;;30.0;;
45382;SDS011;42455;51.660;5.824;2023-04-08T01:06:48;40.0;;;30.0;;
45382;SDS011;42455;51.660;5.824;2023-04-08T01:11:49;39.0;;;29.5;;
45382;SDS011;42455;51.660;5.824;2023-04-08T01:16:55;36.0;;;28.5;;
45382;SDS011;42455;51.660;5.824;2023-04-08T01:22:02;39.0;;;29.0;;
45382;SDS011;42455;51.660;5.824;2023-04-08T01:27:06;35.5;;;29.0;;
45382;SDS011;42455;51.660;5.824;2023-04-08T01:32:13;41.0;;;30.0;;
45382;SDS011;42455;51.660;5.824;2023-04-08T01:37:19;36.0;;;29.0;;
45382;SDS011;42455;51.660;5.824;2023-04-08T01:42:27;37.0;;;30.0;;
45382;SDS011;42455;51.660;5.824;2023-04-08T01:47:31;39.5;;;29.0;;
45382;SDS011;42455;51.660;5.824;2023-04-08T01:57:47;34.0;;;29.0;;
45382;SDS011;42455;51.660;5.824;2023-04-08T02:02:51;33.5;;;28.0;;
45382;SDS011;42455;51.660;5.824;2023-04-08T02:07:55;33.0;;;27.0;;
45382;SDS011;42455;51.660;5.824;2023-04-08T02:13:01;29.5;;;26.0;;
45382;SDS011;42455;51.660;5.824;2023-04-08T02:18:10;30.0;;;26.0;;
45382;SDS011;42455;51.660;5.824;2023-04-08T02:23:13;32.0;;;27.0;;
45382;SDS011;42455;51.660;5.824;2023-04-08T02:28:21;27.0;;;24.0;;
45382;SDS011;42455;51.660;5.824;2023-04-08T02:33:25;28.0;;;25.0;;
45382;SDS011;42455;51.660;5.824;2023-04-08T02:38:31;29.0;;;24.0;;
45382;SDS011;42455;51.660;5.824;2023-04-08T02:43:38;27.0;;;24.0;;
45382;SDS011;42455;51.660;5.824;2023-04-08T02:48:44;25.5;;;22.5;;
45382;SDS011;42455;51.660;5.824;2023-04-08T02:53:50;26.0;;;23.0;;
45382;SDS011;42455;51.660;5.824;2023-04-08T02:58:56;28.0;;;24.0;;
45382;SDS011;42455;51.660;5.824;2023-04-08T03:04:02;28.0;;;24.0;;
45382;SDS011;42455;51.660;5.824;2023-04-08T03:09:09;32.5;;;27.0;;
45382;SDS011;42455;51.660;5.824;2023-04-08T03:14:15;28.0;;;24.0;;
45382;SDS011;42455;51.660;5.824;2023-04-08T03:19:21;27.0;;;24.0;;
45382;SDS011;42455;51.660;5.824;2023-04-08T03:24:27;19.5;;;17.0;;
45382;SDS011;42455;51.660;5.824;2023-04-08T03:29:33;22.0;;;20.0;;
45382;SDS011;42455;51.660;5.824;2023-04-08T03:34:40;28.5;;;19.0;;
45382;SDS011;42455;51.660;5.824;2023-04-08T03:39:46;53.0;;;19.0;;
45382;SDS011;42455;51.660;5.824;2023-04-08T03:44:52;29.0;;;16.0;;
45382;SDS011;42455;51.660;5.824;2023-04-08T03:49:58;56.0;;;21.0;;
45382;SDS011;42455;51.660;5.824;2023-04-08T03:55:04;22.0;;;19.0;;
45382;SDS011;42455;51.660;5.824;2023-04-08T04:00:11;19.0;;;17.0;;
45382;SDS011;42455;51.660;5.824;2023-04-08T04:05:17;21.0;;;18.0;;
45382;SDS011;42455;51.660;5.824;2023-04-08T04:10:23;21.0;;;19.0;;
45382;SDS011;42455;51.660;5.824;2023-04-08T04:15:28;25.0;;;22.0;;
45382;SDS011;42455;51.660;5.824;2023-04-08T04:20:38;31.0;;;25.5;;
45382;SDS011;42455;51.660;5.824;2023-04-08T04:25:40;38.5;;;22.5;;
45382;SDS011;42455;51.660;5.824;2023-04-08T04:30:46;50.0;;;23.0;;
45382;SDS011;42455;51.660;5.824;2023-04-08T04:35:52;72.0;;;22.0;;
45382;SDS011;42455;51.660;5.824;2023-04-08T04:40:58;67.5;;;22.0;;
45382;SDS011;42455;51.660;5.824;2023-04-08T04:46:05;88.5;;;26.0;;
45382;SDS011;42455;51.660;5.824;2023-04-08T04:51:11;74.0;;;26.0;;
45382;SDS011;42455;51.660;5.824;2023-04-08T04:56:17;83.5;;;29.0;;
45382;SDS011;42455;51.660;5.824;2023-04-08T05:01:23;48.5;;;29.0;;
45382;SDS011;42455;51.660;5.824;2023-04-08T05:06:29;58.5;;;30.0;;
45382;SDS011;42455;51.660;5.824;2023-04-08T05:11:36;49.0;;;31.0;;
45382;SDS011;42455;51.660;5.824;2023-04-08T05:16:42;50.0;;;32.5;;
45382;SDS011;42455;51.660;5.824;2023-04-08T05:21:48;59.0;;;33.0;;
45382;SDS011;42455;51.660;5.824;2023-04-08T05:26:54;52.5;;;31.0;;
45382;SDS011;42455;51.660;5.824;2023-04-08T05:32:00;41.5;;;32.0;;
45382;SDS011;42455;51.660;5.824;2023-04-08T05:37:07;55.0;;;33.0;;
45382;SDS011;42455;51.660;5.824;2023-04-08T05:42:13;59.0;;;31.0;;
45382;SDS011;42455;51.660;5.824;2023-04-08T05:47:19;84.0;;;25.0;;
45382;SDS011;42455;51.660;5.824;2023-04-08T05:52:25;46.0;;;23.0;;
45382;SDS011;42455;51.660;5.824;2023-04-08T05:57:33;43.5;;;23.0;;
45382;SDS011;42455;51.660;5.824;2023-04-08T06:02:38;44.5;;;22.0;;
45382;SDS011;42455;51.660;5.824;2023-04-08T06:07:44;44.0;;;21.0;;
45382;SDS011;42455;51.660;5.824;2023-04-08T06:12:49;39.0;;;20.0;;
45382;SDS011;42455;51.660;5.824;2023-04-08T06:17:55;31.0;;;20.0;;
45382;SDS011;42455;51.660;5.824;2023-04-08T06:23:02;32.0;;;20.0;;
45382;SDS011;42455;51.660;5.824;2023-04-08T06:28:07;32.0;;;19.0;;
45382;SDS011;42455;51.660;5.824;2023-04-08T06:33:13;41.0;;;20.0;;
45382;SDS011;42455;51.660;5.824;2023-04-08T06:43:25;44.5;;;18.0;;
45382;SDS011;42455;51.660;5.824;2023-04-08T06:48:32;51.0;;;19.0;;
45382;SDS011;42455;51.660;5.824;2023-04-08T06:53:38;71.0;;;20.0;;
45382;SDS011;42455;51.660;5.824;2023-04-08T06:58:44;62.5;;;20.5;;
45382;SDS011;42455;51.660;5.824;2023-04-08T07:03:50;60.5;;;18.0;;
45382;SDS011;42455;51.660;5.824;2023-04-08T07:08:56;39.0;;;17.0;;
45382;SDS011;42455;51.660;5.824;2023-04-08T07:14:03;40.0;;;18.5;;
45382;SDS011;42455;51.660;5.824;2023-04-08T07:19:09;46.5;;;17.0;;
45382;SDS011;42455;51.660;5.824;2023-04-08T07:24:15;51.0;;;18.0;;
45382;SDS011;42455;51.660;5.824;2023-04-08T07:29:21;56.0;;;19.0;;
45382;SDS011;42455;51.660;5.824;2023-04-08T07:34:27;49.0;;;19.0;;
45382;SDS011;42455;51.660;5.824;2023-04-08T07:39:34;46.5;;;19.5;;
45382;SDS011;42455;51.660;5.824;2023-04-08T07:44:40;47.0;;;21.0;;
45382;SDS011;42455;51.660;5.824;2023-04-08T07:49:46;48.0;;;20.0;;
45382;SDS011;42455;51.660;5.824;2023-04-08T07:54:52;34.5;;;21.0;;
45382;SDS011;42455;51.660;5.824;2023-04-08T07:59:59;27.0;;;22.0;;
45382;SDS011;42455;51.660;5.824;2023-04-08T08:05:05;25.5;;;23.0;;
45382;SDS011;42455;51.660;5.824;2023-04-08T08:10:11;34.5;;;22.0;;
45382;SDS011;42455;51.660;5.824;2023-04-08T08:15:17;28.5;;;23.0;;
45382;SDS011;42455;51.660;5.824;2023-04-08T08:20:22;27.5;;;23.0;;
45382;SDS011;42455;51.660;5.824;2023-04-08T08:25:29;31.0;;;25.0;;
45382;SDS011;42455;51.660;5.824;2023-04-08T08:30:34;29.0;;;26.0;;
45382;SDS011;42455;51.660;5.824;2023-04-08T08:35:40;31.5;;;27.0;;
45382;SDS011;42455;51.660;5.824;2023-04-08T08:40:48;30.0;;;27.0;;
45382;SDS011;42455;51.660;5.824;2023-04-08T08:45:52;34.0;;;30.0;;
45382;SDS011;42455;51.660;5.824;2023-04-08T08:50:59;39.0;;;35.0;;
45382;SDS011;42455;51.660;5.824;2023-04-08T08:56:05;38.5;;;34.0;;
45382;SDS011;42455;51.660;5.824;2023-04-08T09:01:28;33.0;;;29.0;;
45382;SDS011;42455;51.660;5.824;2023-04-08T09:06:17;32.0;;;29.0;;
45382;SDS011;42455;51.660;5.824;2023-04-08T09:11:23;32.0;;;29.0;;
45382;SDS011;42455;51.660;5.824;2023-04-08T09:16:30;31.0;;;28.0;;
45382;SDS011;42455;51.660;5.824;2023-04-08T09:21:36;32.0;;;29.0;;
45382;SDS011;42455;51.660;5.824;2023-04-08T09:26:44;34.0;;;31.0;;
45382;SDS011;42455;51.660;5.824;2023-04-08T09:31:52;33.0;;;30.0;;
45382;SDS011;42455;51.660;5.824;2023-04-08T09:36:55;33.0;;;30.0;;
45382;SDS011;42455;51.660;5.824;2023-04-08T09:42:05;33.0;;;30.0;;
45382;SDS011;42455;51.660;5.824;2023-04-08T09:47:28;33.0;;;30.0;;
45382;SDS011;42455;51.660;5.824;2023-04-08T09:52:14;34.5;;;31.0;;
45382;SDS011;42455;51.660;5.824;2023-04-08T09:57:20;34.0;;;31.0;;
45382;SDS011;42455;51.660;5.824;2023-04-08T10:02:28;34.0;;;31.0;;
45382;SDS011;42455;51.660;5.824;2023-04-08T10:07:33;32.0;;;29.0;;
45382;SDS011;42455;51.660;5.824;2023-04-08T10:12:38;32.0;;;29.0;;
45382;SDS011;42455;51.660;5.824;2023-04-08T10:17:43;31.0;;;28.0;;
45382;SDS011;42455;51.660;5.824;2023-04-08T10:22:49;30.0;;;27.0;;
45382;SDS011;42455;51.660;5.824;2023-04-08T10:27:56;30.0;;;27.0;;
45382;SDS011;42455;51.660;5.824;2023-04-08T10:33:01;29.0;;;27.0;;
45382;SDS011;42455;51.660;5.824;2023-04-08T10:38:07;30.0;;;27.0;;
45382;SDS011;42455;51.660;5.824;2023-04-08T10:43:14;27.0;;;24.0;;
45382;SDS011;42455;51.660;5.824;2023-04-08T10:48:21;30.0;;;27.0;;
45382;SDS011;42455;51.660;5.824;2023-04-08T10:53:26;26.0;;;23.0;;
45382;SDS011;42455;51.660;5.824;2023-04-08T10:58:32;25.0;;;23.0;;
45382;SDS011;42455;51.660;5.824;2023-04-08T11:03:38;27.0;;;24.0;;
45382;SDS011;42455;51.660;5.824;2023-04-08T11:08:45;26.0;;;23.0;;
45382;SDS011;42455;51.660;5.824;2023-04-08T11:13:51;25.0;;;23.0;;
45382;SDS011;42455;51.660;5.824;2023-04-08T11:18:57;24.0;;;22.0;;
45382;SDS011;42455;51.660;5.824;2023-04-08T11:24:05;24.0;;;22.0;;
45382;SDS011;42455;51.660;5.824;2023-04-08T11:29:09;22.0;;;20.0;;
45382;SDS011;42455;51.660;5.824;2023-04-08T11:34:20;21.0;;;20.0;;
45382;SDS011;42455;51.660;5.824;2023-04-08T11:39:21;22.0;;;20.0;;
45382;SDS011;42455;51.660;5.824;2023-04-08T11:44:29;20.0;;;18.0;;
45382;SDS011;42455;51.660;5.824;2023-04-08T11:49:42;17.0;;;16.0;;
45382;SDS011;42455;51.660;5.824;2023-04-08T11:54:41;17.0;;;16.0;;
45382;SDS011;42455;51.660;5.824;2023-04-08T11:59:46;17.0;;;15.0;;
45382;SDS011;42455;51.660;5.824;2023-04-08T12:04:52;13.0;;;11.0;;
45382;SDS011;42455;51.660;5.824;2023-04-08T12:09:58;12.0;;;11.0;;
45382;SDS011;42455;51.660;5.824;2023-04-08T12:15:04;11.0;;;10.0;;
45382;SDS011;42455;51.660;5.824;2023-04-08T12:20:09;11.0;;;10.0;;
45382;SDS011;42455;51.660;5.824;2023-04-08T12:25:16;11.0;;;10.0;;
45382;SDS011;42455;51.660;5.824;2023-04-08T12:30:21;11.0;;;10.0;;
45382;SDS011;42455;51.660;5.824;2023-04-08T12:35:27;10.0;;;9.0;;
45382;SDS011;42455;51.660;5.824;2023-04-08T12:40:33;11.0;;;10.0;;
45382;SDS011;42455;51.660;5.824;2023-04-08T12:45:39;11.0;;;10.0;;
45382;SDS011;42455;51.660;5.824;2023-04-08T12:50:46;11.0;;;10.0;;
45382;SDS011;42455;51.660;5.824;2023-04-08T13:00:58;10.0;;;9.0;;
45382;SDS011;42455;51.660;5.824;2023-04-08T13:06:04;10.0;;;9.0;;
45382;SDS011;42455;51.660;5.824;2023-04-08T13:11:10;9.0;;;8.0;;
45382;SDS011;42455;51.660;5.824;2023-04-08T13:16:17;9.0;;;8.0;;
45382;SDS011;42455;51.660;5.824;2023-04-08T13:21:23;8.0;;;8.0;;
45382;SDS011;42455;51.660;5.824;2023-04-08T13:26:29;8.5;;;8.0;;
45382;SDS011;42455;51.660;5.824;2023-04-08T13:31:35;9.0;;;8.0;;
45382;SDS011;42455;51.660;5.824;2023-04-08T13:36:41;9.0;;;8.0;;
45382;SDS011;42455;51.660;5.824;2023-04-08T13:41:48;8.0;;;7.0;;
45382;SDS011;42455;51.660;5.824;2023-04-08T13:46:54;9.0;;;8.0;;
45382;SDS011;42455;51.660;5.824;2023-04-08T13:52:00;8.0;;;7.0;;
45382;SDS011;42455;51.660;5.824;2023-04-08T13:57:06;8.0;;;7.0;;
45382;SDS011;42455;51.660;5.824;2023-04-08T14:02:13;6.0;;;6.0;;
45382;SDS011;42455;51.660;5.824;2023-04-08T14:07:19;7.0;;;6.0;;
45382;SDS011;42455;51.660;5.824;2023-04-08T14:12:25;7.0;;;7.0;;
45382;SDS011;42455;51.660;5.824;2023-04-08T14:17:31;7.0;;;6.0;;
45382;SDS011;42455;51.660;5.824;2023-04-08T14:22:36;7.0;;;6.0;;
45382;SDS011;42455;51.660;5.824;2023-04-08T14:27:43;7.0;;;7.0;;
45382;SDS011;42455;51.660;5.824;2023-04-08T14:32:48;7.0;;;7.0;;
45382;SDS011;42455;51.660;5.824;2023-04-08T14:37:54;6.0;;;6.0;;
45382;SDS011;42455;51.660;5.824;2023-04-08T14:43:00;7.0;;;6.0;;
45382;SDS011;42455;51.660;5.824;2023-04-08T14:48:07;6.0;;;5.0;;
45382;SDS011;42455;51.660;5.824;2023-04-08T14:53:13;6.0;;;5.5;;
45382;SDS011;42455;51.660;5.824;2023-04-08T15:03:25;6.0;;;6.0;;
45382;SDS011;42455;51.660;5.824;2023-04-08T15:08:31;7.0;;;6.0;;
45382;SDS011;42455;51.660;5.824;2023-04-08T15:13:38;7.0;;;6.0;;
45382;SDS011;42455;51.660;5.824;2023-04-08T15:18:44;7.0;;;7.0;;
45382;SDS011;42455;51.660;5.824;2023-04-08T15:23:50;8.0;;;7.0;;
45382;SDS011;42455;51.660;5.824;2023-04-08T15:28:56;7.0;;;6.0;;
45382;SDS011;42455;51.660;5.824;2023-04-08T15:34:02;7.0;;;7.0;;
45382;SDS011;42455;51.660;5.824;2023-04-08T15:39:09;8.0;;;7.0;;
45382;SDS011;42455;51.660;5.824;2023-04-08T15:44:15;9.0;;;8.0;;
45382;SDS011;42455;51.660;5.824;2023-04-08T15:49:21;10.0;;;9.0;;
45382;SDS011;42455;51.660;5.824;2023-04-08T15:54:27;9.0;;;9.0;;
45382;SDS011;42455;51.660;5.824;2023-04-08T15:59:33;10.0;;;9.0;;
45382;SDS011;42455;51.660;5.824;2023-04-08T16:04:40;10.0;;;9.0;;
45382;SDS011;42455;51.660;5.824;2023-04-08T16:09:46;10.0;;;9.0;;
45382;SDS011;42455;51.660;5.824;2023-04-08T16:14:52;11.0;;;10.0;;
45382;SDS011;42455;51.660;5.824;2023-04-08T16:19:58;12.0;;;11.0;;
45382;SDS011;42455;51.660;5.824;2023-04-08T16:25:04;11.0;;;10.0;;
45382;SDS011;42455;51.660;5.824;2023-04-08T16:30:10;10.0;;;9.0;;
45382;SDS011;42455;51.660;5.824;2023-04-08T16:35:16;10.0;;;9.0;;
45382;SDS011;42455;51.660;5.824;2023-04-08T16:40:21;11.0;;;10.0;;
45382;SDS011;42455;51.660;5.824;2023-04-08T16:45:28;11.0;;;10.0;;
45382;SDS011;42455;51.660;5.824;2023-04-08T16:50:34;11.5;;;10.5;;
45382;SDS011;42455;51.660;5.824;2023-04-08T16:55:40;12.0;;;11.0;;
45382;SDS011;42455;51.660;5.824;2023-04-08T17:00:46;12.0;;;11.0;;
45382;SDS011;42455;51.660;5.824;2023-04-08T17:05:52;12.0;;;11.0;;
45382;SDS011;42455;51.660;5.824;2023-04-08T17:11:03;13.0;;;12.0;;
45382;SDS011;42455;51.660;5.824;2023-04-08T17:16:05;13.0;;;12.0;;
45382;SDS011;42455;51.660;5.824;2023-04-08T17:21:11;13.0;;;11.5;;
45382;SDS011;42455;51.660;5.824;2023-04-08T17:26:17;13.0;;;12.0;;
45382;SDS011;42455;51.660;5.824;2023-04-08T17:31:23;13.0;;;12.0;;
45382;SDS011;42455;51.660;5.824;2023-04-08T17:36:29;13.0;;;12.0;;
45382;SDS011;42455;51.660;5.824;2023-04-08T17:41:36;13.0;;;12.0;;
45382;SDS011;42455;51.660;5.824;2023-04-08T17:46:42;14.0;;;13.0;;
45382;SDS011;42455;51.660;5.824;2023-04-08T17:51:48;14.0;;;13.0;;
45382;SDS011;42455;51.660;5.824;2023-04-08T17:56:54;14.0;;;13.0;;
45382;SDS011;42455;51.660;5.824;2023-04-08T18:02:00;14.0;;;13.0;;
45382;SDS011;42455;51.660;5.824;2023-04-08T18:07:07;15.0;;;13.0;;
45382;SDS011;42455;51.660;5.824;2023-04-08T18:12:13;14.0;;;13.0;;
45382;SDS011;42455;51.660;5.824;2023-04-08T18:17:19;14.0;;;13.0;;
45382;SDS011;42455;51.660;5.824;2023-04-08T18:22:25;14.0;;;13.0;;
45382;SDS011;42455;51.660;5.824;2023-04-08T18:27:31;15.0;;;13.0;;
45382;SDS011;42455;51.660;5.824;2023-04-08T18:32:37;15.0;;;14.0;;
45382;SDS011;42455;51.660;5.824;2023-04-08T18:37:43;15.0;;;13.0;;
45382;SDS011;42455;51.660;5.824;2023-04-08T18:42:48;15.0;;;14.0;;
45382;SDS011;42455;51.660;5.824;2023-04-08T18:47:54;15.0;;;14.0;;
45382;SDS011;42455;51.660;5.824;2023-04-08T18:53:01;15.0;;;14.0;;
45382;SDS011;42455;51.660;5.824;2023-04-08T18:58:07;16.0;;;15.0;;
45382;SDS011;42455;51.660;5.824;2023-04-08T19:03:13;17.0;;;15.0;;
45382;SDS011;42455;51.660;5.824;2023-04-08T19:08:19;17.0;;;16.0;;
45382;SDS011;42455;51.660;5.824;2023-04-08T19:13:26;16.5;;;15.0;;
45382;SDS011;42455;51.660;5.824;2023-04-08T19:18:32;18.0;;;16.0;;
45382;SDS011;42455;51.660;5.824;2023-04-08T19:23:38;19.0;;;17.0;;
45382;SDS011;42455;51.660;5.824;2023-04-08T19:28:44;19.0;;;17.0;;
45382;SDS011;42455;51.660;5.824;2023-04-08T19:33:50;18.0;;;17.0;;
45382;SDS011;42455;51.660;5.824;2023-04-08T19:38:57;19.0;;;17.0;;
45382;SDS011;42455;51.660;5.824;2023-04-08T19:44:03;19.0;;;17.0;;
45382;SDS011;42455;51.660;5.824;2023-04-08T19:49:09;19.0;;;17.0;;
45382;SDS011;42455;51.660;5.824;2023-04-08T19:54:15;20.0;;;18.0;;
45382;SDS011;42455;51.660;5.824;2023-04-08T19:59:21;23.0;;;21.0;;
45382;SDS011;42455;51.660;5.824;2023-04-08T20:04:28;25.0;;;22.0;;
45382;SDS011;42455;51.660;5.824;2023-04-08T20:09:34;22.0;;;20.0;;
45382;SDS011;42455;51.660;5.824;2023-04-08T20:14:40;20.0;;;18.0;;
45382;SDS011;42455;51.660;5.824;2023-04-08T20:19:46;21.0;;;19.0;;
45382;SDS011;42455;51.660;5.824;2023-04-08T20:24:52;20.0;;;18.0;;
45382;SDS011;42455;51.660;5.824;2023-04-08T20:29:58;23.0;;;21.0;;
45382;SDS011;42455;51.660;5.824;2023-04-08T20:35:04;23.0;;;21.0;;
45382;SDS011;42455;51.660;5.824;2023-04-08T20:40:09;25.0;;;23.0;;
45382;SDS011;42455;51.660;5.824;2023-04-08T20:45:15;25.5;;;23.0;;
45382;SDS011;42455;51.660;5.824;2023-04-08T20:50:22;26.0;;;24.0;;
45382;SDS011;42455;51.660;5.824;2023-04-08T20:55:28;29.0;;;26.0;;
45382;SDS011;42455;51.660;5.824;2023-04-08T21:00:34;27.0;;;25.0;;
45382;SDS011;42455;51.660;5.824;2023-04-08T21:05:40;28.0;;;25.0;;
45382;SDS011;42455;51.660;5.824;2023-04-08T21:10:46;27.0;;;24.0;;
45382;SDS011;42455;51.660;5.824;2023-04-08T21:15:53;25.0;;;23.0;;
45382;SDS011;42455;51.660;5.824;2023-04-08T21:20:59;26.0;;;23.0;;
45382;SDS011;42455;51.660;5.824;2023-04-08T21:26:08;25.0;;;23.0;;
45382;SDS011;42455;51.660;5.824;2023-04-08T21:31:12;25.0;;;23.0;;
45382;SDS011;42455;51.660;5.824;2023-04-08T21:36:17;25.0;;;23.0;;
45382;SDS011;42455;51.660;5.824;2023-04-08T21:41:24;23.0;;;21.0;;
45382;SDS011;42455;51.660;5.824;2023-04-08T21:46:30;20.0;;;18.0;;
45382;SDS011;42455;51.660;5.824;2023-04-08T21:51:36;21.0;;;19.0;;
45382;SDS011;42455;51.660;5.824;2023-04-08T21:56:42;24.0;;;21.0;;
45382;SDS011;42455;51.660;5.824;2023-04-08T22:01:48;24.0;;;22.0;;
45382;SDS011;42455;51.660;5.824;2023-04-08T22:06:55;25.0;;;22.0;;
45382;SDS011;42455;51.660;5.824;2023-04-08T22:12:01;25.0;;;22.0;;
45382;SDS011;42455;51.660;5.824;2023-04-08T22:22:13;24.0;;;21.5;;
45382;SDS011;42455;51.660;5.824;2023-04-08T22:27:19;24.0;;;21.0;;
45382;SDS011;42455;51.660;5.824;2023-04-08T22:32:25;24.0;;;22.0;;
45382;SDS011;42455;51.660;5.824;2023-04-08T22:37:31;24.0;;;21.0;;
45382;SDS011;42455;51.660;5.824;2023-04-08T22:42:36;24.0;;;22.0;;
45382;SDS011;42455;51.660;5.824;2023-04-08T22:47:42;24.0;;;21.0;;
45382;SDS011;42455;51.660;5.824;2023-04-08T22:52:49;23.0;;;21.0;;
45382;SDS011;42455;51.660;5.824;2023-04-08T22:57:55;23.0;;;21.0;;
45382;SDS011;42455;51.660;5.824;2023-04-08T23:03:01;24.0;;;21.0;;
45382;SDS011;42455;51.660;5.824;2023-04-08T23:08:07;23.0;;;21.0;;
45382;SDS011;42455;51.660;5.824;2023-04-08T23:13:13;24.0;;;21.0;;
45382;SDS011;42455;51.660;5.824;2023-04-08T23:18:20;24.0;;;22.0;;
45382;SDS011;42455;51.660;5.824;2023-04-08T23:23:26;24.0;;;21.0;;
45382;SDS011;42455;51.660;5.824;2023-04-08T23:28:32;24.0;;;22.0;;
45382;SDS011;42455;51.660;5.824;2023-04-08T23:33:38;24.5;;;22.0;;
45382;SDS011;42455;51.660;5.824;2023-04-08T23:43:51;24.0;;;22.0;;
45382;SDS011;42455;51.660;5.824;2023-04-08T23:48:57;24.0;;;22.0;;
45382;SDS011;42455;51.660;5.824;2023-04-08T23:54:03;25.0;;;22.0;;
45382;SDS011;42455;51.660;5.824;2023-04-08T23:59:09;24.0;;;22.0;;
